sensor_id;sensor_type;location;lat;lon;timestamp;pressure;altitude;pressure_sealevel;temperature;humidity
44075;BME280;60448;44.956;7.660;2023-03-01T00:00:00;99130;;;14.0;54.2
44075;BME280;60448;44.956;7.660;2023-03-01T00:05:00;99130;;;14.0;54.2
44075;BME280;60448;44.956;7.660;2023-03-01T00:10:00;99130;;;14.1;54.1
44075;BME280;60448;44.956;7.660;2023-03-01T00:15:00;99130;;;14.1;54.1
44075;BME280;60448;44.956;7.660;2023-03-01T00:20:00;99130;;;14.1;54.1
44075;BME280;60448;44.956;7.660;2023-03-01T00:25:00;99140;;;14.1;54.2
44075;BME280;60448;44.956;7.660;2023-03-01T00:30:00;99140;;;14.0;54.3
44075;BME280;60448;44.956;7.660;2023-03-01T00:35:00;99140;;;14.0;54.3
44075;BME280;60448;44.956;7.660;2023-03-01T00:40:00;99140;;;14.0;54.3
44075;BME280;60448;44.956;7.660;2023-03-01T00:45:00;99130;;;14.0;54.3
44075;BME280;60448;44.956;7.660;2023-03-01T00:50:00;99130;;;14.0;54.3
44075;BME280;60448;44.956;7.660;2023-03-01T00:55:00;99130;;;14.0;54.3
44075;BME280;60448;44.956;7.660;2023-03-01T01:00:00;99110;;;14.0;54.3
44075;BME280;60448;44.956;7.660;2023-03-01T01:05:00;99110;;;14.0;54.3
44075;BME280;60448;44.956;7.660;2023-03-01T01:10:00;99110;;;14.0;54.3
44075;BME280;60448;44.956;7.660;2023-03-01T01:15:00;99100;;;14.0;54.2
44075;BME280;60448;44.956;7.660;2023-03-01T01:20:00;99100;;;14.0;54.2
44075;BME280;60448;44.956;7.660;2023-03-01T01:25:00;99100;;;14.0;54.2
44075;BME280;60448;44.956;7.660;2023-03-01T01:30:00;99090;;;14.0;54.3
44075;BME280;60448;44.956;7.660;2023-03-01T01:35:00;99090;;;14.0;54.3
44075;BME280;60448;44.956;7.660;2023-03-01T01:40:00;99090;;;14.0;54.3
44075;BME280;60448;44.956;7.660;2023-03-01T01:50:00;99070;;;13.9;54.4
44075;BME280;60448;44.956;7.660;2023-03-01T01:55:09;99070;;;13.9;54.4
44075;BME280;60448;44.956;7.660;2023-03-01T02:00:03;99060;;;14.0;54.4
44075;BME280;60448;44.956;7.660;2023-03-01T02:05:03;99060;;;13.9;54.4
44075;BME280;60448;44.956;7.660;2023-03-01T02:10:00;99060;;;13.9;54.4
44075;BME280;60448;44.956;7.660;2023-03-01T02:15:00;99060;;;13.9;54.4
44075;BME280;60448;44.956;7.660;2023-03-01T02:30:00;99040;;;13.9;54.4
44075;BME280;60448;44.956;7.660;2023-03-01T02:35:00;99040;;;13.9;54.4
44075;BME280;60448;44.956;7.660;2023-03-01T02:40:02;99040;;;13.9;54.4
44075;BME280;60448;44.956;7.660;2023-03-01T02:45:00;99040;;;13.9;54.4
44075;BME280;60448;44.956;7.660;2023-03-01T02:50:00;99020;;;13.9;54.5
44075;BME280;60448;44.956;7.660;2023-03-01T03:00:05;99020;;;13.9;54.5
44075;BME280;60448;44.956;7.660;2023-03-01T03:05:00;99000;;;13.9;54.4
44075;BME280;60448;44.956;7.660;2023-03-01T03:10:01;99000;;;13.9;54.4
44075;BME280;60448;44.956;7.660;2023-03-01T03:15:00;99000;;;13.9;54.4
44075;BME280;60448;44.956;7.660;2023-03-01T03:20:00;98980;;;13.9;54.5
44075;BME280;60448;44.956;7.660;2023-03-01T03:25:00;98980;;;13.9;54.5
44075;BME280;60448;44.956;7.660;2023-03-01T03:30:00;98980;;;13.9;54.5
44075;BME280;60448;44.956;7.660;2023-03-01T03:35:00;98970;;;13.9;54.5
44075;BME280;60448;44.956;7.660;2023-03-01T03:40:00;98960;;;13.8;54.5
44075;BME280;60448;44.956;7.660;2023-03-01T03:45:00;98960;;;13.8;54.5
44075;BME280;60448;44.956;7.660;2023-03-01T03:50:00;98960;;;13.8;54.5
44075;BME280;60448;44.956;7.660;2023-03-01T03:55:00;98960;;;13.8;54.5
44075;BME280;60448;44.956;7.660;2023-03-01T04:00:00;98960;;;13.8;54.5
44075;BME280;60448;44.956;7.660;2023-03-01T04:05:00;98960;;;13.8;54.5
44075;BME280;60448;44.956;7.660;2023-03-01T04:10:01;98940;;;13.8;54.5
44075;BME280;60448;44.956;7.660;2023-03-01T04:15:00;98940;;;13.8;54.5
44075;BME280;60448;44.956;7.660;2023-03-01T04:20:00;98940;;;13.8;54.5
44075;BME280;60448;44.956;7.660;2023-03-01T04:25:00;98940;;;13.9;54.3
44075;BME280;60448;44.956;7.660;2023-03-01T04:30:00;98940;;;13.9;54.3
44075;BME280;60448;44.956;7.660;2023-03-01T04:35:00;98940;;;13.9;54.3
44075;BME280;60448;44.956;7.660;2023-03-01T04:40:01;98940;;;13.8;54.4
44075;BME280;60448;44.956;7.660;2023-03-01T04:45:00;98940;;;13.8;54.4
44075;BME280;60448;44.956;7.660;2023-03-01T04:50:00;98940;;;13.8;54.4
44075;BME280;60448;44.956;7.660;2023-03-01T04:55:00;98930;;;13.8;54.5
44075;BME280;60448;44.956;7.660;2023-03-01T05:00:00;98930;;;13.8;54.5
44075;BME280;60448;44.956;7.660;2023-03-01T05:05:00;98930;;;13.8;54.5
44075;BME280;60448;44.956;7.660;2023-03-01T05:10:00;98930;;;13.8;54.6
44075;BME280;60448;44.956;7.660;2023-03-01T05:15:00;98930;;;13.8;54.6
44075;BME280;60448;44.956;7.660;2023-03-01T05:20:00;98930;;;13.8;54.6
44075;BME280;60448;44.956;7.660;2023-03-01T05:25:00;98940;;;13.9;54.6
44075;BME280;60448;44.956;7.660;2023-03-01T05:30:00;98940;;;13.8;54.6
44075;BME280;60448;44.956;7.660;2023-03-01T05:35:00;98940;;;13.8;54.6
44075;BME280;60448;44.956;7.660;2023-03-01T05:40:00;98940;;;13.8;54.6
44075;BME280;60448;44.956;7.660;2023-03-01T05:45:00;98940;;;13.8;54.6
44075;BME280;60448;44.956;7.660;2023-03-01T05:50:00;98940;;;13.8;54.6
44075;BME280;60448;44.956;7.660;2023-03-01T05:55:00;98940;;;13.8;54.6
44075;BME280;60448;44.956;7.660;2023-03-01T06:00:00;98940;;;13.8;54.6
44075;BME280;60448;44.956;7.660;2023-03-01T06:05:00;98940;;;13.8;54.6
44075;BME280;60448;44.956;7.660;2023-03-01T06:10:00;98940;;;13.8;54.6
44075;BME280;60448;44.956;7.660;2023-03-01T06:15:00;98940;;;13.8;54.6
44075;BME280;60448;44.956;7.660;2023-03-01T06:20:00;98940;;;13.8;54.6
44075;BME280;60448;44.956;7.660;2023-03-01T06:25:00;98940;;;13.8;54.6
44075;BME280;60448;44.956;7.660;2023-03-01T06:30:00;98940;;;13.8;54.6
44075;BME280;60448;44.956;7.660;2023-03-01T06:35:00;98940;;;13.8;54.6
44075;BME280;60448;44.956;7.660;2023-03-01T06:40:00;98940;;;13.8;54.6
44075;BME280;60448;44.956;7.660;2023-03-01T06:45:00;98940;;;13.8;54.6
44075;BME280;60448;44.956;7.660;2023-03-01T06:50:00;98940;;;13.8;54.6
44075;BME280;60448;44.956;7.660;2023-03-01T06:55:01;98940;;;13.8;54.6
44075;BME280;60448;44.956;7.660;2023-03-01T07:00:00;98940;;;13.8;54.6
44075;BME280;60448;44.956;7.660;2023-03-01T07:05:00;98940;;;13.8;54.6
44075;BME280;60448;44.956;7.660;2023-03-01T07:10:00;98940;;;13.8;54.6
44075;BME280;60448;44.956;7.660;2023-03-01T07:15:00;98940;;;13.8;54.6
44075;BME280;60448;44.956;7.660;2023-03-01T07:20:00;98940;;;13.8;54.6
44075;BME280;60448;44.956;7.660;2023-03-01T07:25:00;98940;;;13.8;54.6
44075;BME280;60448;44.956;7.660;2023-03-01T07:30:00;98940;;;13.8;54.6
44075;BME280;60448;44.956;7.660;2023-03-01T07:35:00;98940;;;13.8;54.6
44075;BME280;60448;44.956;7.660;2023-03-01T07:40:00;98940;;;13.8;54.6
44075;BME280;60448;44.956;7.660;2023-03-01T07:45:00;98940;;;13.8;54.6
44075;BME280;60448;44.956;7.660;2023-03-01T07:50:00;98940;;;13.8;54.6
44075;BME280;60448;44.956;7.660;2023-03-01T07:55:00;98940;;;13.8;54.6
44075;BME280;60448;44.956;7.660;2023-03-01T08:00:00;98940;;;13.8;54.6
44075;BME280;60448;44.956;7.660;2023-03-01T08:05:00;98940;;;13.8;54.6
44075;BME280;60448;44.956;7.660;2023-03-01T08:10:00;98940;;;13.8;54.6
44075;BME280;60448;44.956;7.660;2023-03-01T08:15:00;98940;;;13.8;54.6
44075;BME280;60448;44.956;7.660;2023-03-01T08:20:00;98940;;;13.8;54.6
44075;BME280;60448;44.956;7.660;2023-03-01T08:25:00;98940;;;13.8;54.6
44075;BME280;60448;44.956;7.660;2023-03-01T08:30:00;98940;;;13.8;54.6
44075;BME280;60448;44.956;7.660;2023-03-01T08:35:00;98940;;;13.8;54.6
44075;BME280;60448;44.956;7.660;2023-03-01T08:40:00;98940;;;13.8;54.6
44075;BME280;60448;44.956;7.660;2023-03-01T08:45:00;98940;;;13.7;55.6
44075;BME280;60448;44.956;7.660;2023-03-01T08:50:00;98940;;;13.7;55.6
44075;BME280;60448;44.956;7.660;2023-03-01T08:55:00;98940;;;13.7;55.6
44075;BME280;60448;44.956;7.660;2023-03-01T09:00:00;98930;;;13.8;55.6
44075;BME280;60448;44.956;7.660;2023-03-01T09:05:00;98930;;;13.8;55.6
44075;BME280;60448;44.956;7.660;2023-03-01T09:10:00;98930;;;13.8;55.6
44075;BME280;60448;44.956;7.660;2023-03-01T09:15:00;98920;;;13.9;55.2
44075;BME280;60448;44.956;7.660;2023-03-01T09:20:00;98920;;;13.9;55.2
44075;BME280;60448;44.956;7.660;2023-03-01T09:25:00;98920;;;13.9;55.2
44075;BME280;60448;44.956;7.660;2023-03-01T09:30:00;98910;;;13.8;55.3
44075;BME280;60448;44.956;7.660;2023-03-01T09:35:00;98910;;;13.8;55.3
44075;BME280;60448;44.956;7.660;2023-03-01T09:40:00;98910;;;13.8;55.3
44075;BME280;60448;44.956;7.660;2023-03-01T09:45:02;98900;;;13.8;55.3
44075;BME280;60448;44.956;7.660;2023-03-01T09:50:06;98900;;;13.8;55.3
44075;BME280;60448;44.956;7.660;2023-03-01T09:55:00;98900;;;13.8;55.3
44075;BME280;60448;44.956;7.660;2023-03-01T10:00:05;98900;;;13.9;55.3
44075;BME280;60448;44.956;7.660;2023-03-01T10:05:05;98890;;;13.8;55.3
44075;BME280;60448;44.956;7.660;2023-03-01T10:10:00;98890;;;13.8;55.3
44075;BME280;60448;44.956;7.660;2023-03-01T10:15:11;98890;;;13.8;55.3
44075;BME280;60448;44.956;7.660;2023-03-01T10:20:10;98880;;;13.8;55.4
44075;BME280;60448;44.956;7.660;2023-03-01T10:25:02;98880;;;13.8;55.4
44075;BME280;60448;44.956;7.660;2023-03-01T10:30:05;98880;;;13.8;55.4
44075;BME280;60448;44.956;7.660;2023-03-01T10:35:00;98850;;;13.8;55.4
44075;BME280;60448;44.956;7.660;2023-03-01T10:40:02;98850;;;13.8;55.4
44075;BME280;60448;44.956;7.660;2023-03-01T10:45:14;98850;;;13.8;55.4
44075;BME280;60448;44.956;7.660;2023-03-01T10:50:03;98830;;;13.8;55.4
44075;BME280;60448;44.956;7.660;2023-03-01T11:00:17;98830;;;13.8;55.4
44075;BME280;60448;44.956;7.660;2023-03-01T11:05:02;98820;;;13.8;55.4
44075;BME280;60448;44.956;7.660;2023-03-01T11:10:03;98820;;;13.8;55.4
44075;BME280;60448;44.956;7.660;2023-03-01T11:15:00;98820;;;13.8;55.4
44075;BME280;60448;44.956;7.660;2023-03-01T11:20:01;98780;;;13.8;55.2
44075;BME280;60448;44.956;7.660;2023-03-01T11:25:00;98780;;;13.8;55.2
44075;BME280;60448;44.956;7.660;2023-03-01T11:35:02;98780;;;13.8;55.2
44075;BME280;60448;44.956;7.660;2023-03-01T11:45:01;98780;;;13.8;55.2
44075;BME280;60448;44.956;7.660;2023-03-01T12:05:04;98780;;;13.8;55.2
44075;BME280;60448;44.956;7.660;2023-03-01T12:15:07;98780;;;13.8;55.2
44075;BME280;60448;44.956;7.660;2023-03-01T12:25:04;98780;;;13.8;55.2
44075;BME280;60448;44.956;7.660;2023-03-01T12:40:03;98780;;;13.8;55.2
44075;BME280;60448;44.956;7.660;2023-03-01T12:50:02;98780;;;13.8;55.2
44075;BME280;60448;44.956;7.660;2023-03-01T12:55:00;98780;;;13.8;55.2
44075;BME280;60448;44.956;7.660;2023-03-01T13:10:04;98780;;;13.8;55.2
44075;BME280;60448;44.956;7.660;2023-03-01T13:15:00;98780;;;13.8;55.2
44075;BME280;60448;44.956;7.660;2023-03-01T13:20:00;98780;;;13.8;55.2
44075;BME280;60448;44.956;7.660;2023-03-01T13:25:01;98780;;;13.8;55.2
44075;BME280;60448;44.956;7.660;2023-03-01T13:30:00;98780;;;13.8;55.2
44075;BME280;60448;44.956;7.660;2023-03-01T13:35:02;98780;;;13.8;55.2
44075;BME280;60448;44.956;7.660;2023-03-01T13:40:02;98780;;;13.8;55.2
44075;BME280;60448;44.956;7.660;2023-03-01T13:45:00;98780;;;13.8;55.2
44075;BME280;60448;44.956;7.660;2023-03-01T13:50:01;98780;;;13.8;55.2
44075;BME280;60448;44.956;7.660;2023-03-01T13:55:00;98780;;;13.8;55.2
44075;BME280;60448;44.956;7.660;2023-03-01T14:00:00;98780;;;13.8;55.2
44075;BME280;60448;44.956;7.660;2023-03-01T14:05:00;98780;;;13.8;55.2
44075;BME280;60448;44.956;7.660;2023-03-01T14:10:02;98780;;;13.8;55.2
44075;BME280;60448;44.956;7.660;2023-03-01T14:20:02;98780;;;13.8;55.2
44075;BME280;60448;44.956;7.660;2023-03-01T14:25:01;98780;;;13.8;55.2
44075;BME280;60448;44.956;7.660;2023-03-01T14:30:02;98780;;;13.8;55.2
44075;BME280;60448;44.956;7.660;2023-03-01T14:35:00;98780;;;13.8;55.2
44075;BME280;60448;44.956;7.660;2023-03-01T14:40:01;98780;;;13.8;55.2
44075;BME280;60448;44.956;7.660;2023-03-01T14:45:00;98780;;;13.8;55.2
44075;BME280;60448;44.956;7.660;2023-03-01T14:50:02;98780;;;13.8;55.2
44075;BME280;60448;44.956;7.660;2023-03-01T14:55:00;98780;;;13.8;55.2
44075;BME280;60448;44.956;7.660;2023-03-01T15:00:01;98780;;;13.8;55.2
44075;BME280;60448;44.956;7.660;2023-03-01T15:05:01;98780;;;13.8;55.2
44075;BME280;60448;44.956;7.660;2023-03-01T15:10:00;98780;;;13.8;55.2
44075;BME280;60448;44.956;7.660;2023-03-01T15:15:00;98780;;;13.8;55.2
44075;BME280;60448;44.956;7.660;2023-03-01T15:20:00;98780;;;13.8;55.2
44075;BME280;60448;44.956;7.660;2023-03-01T15:25:00;98780;;;13.8;55.2
44075;BME280;60448;44.956;7.660;2023-03-01T15:30:00;98780;;;13.8;55.2
44075;BME280;60448;44.956;7.660;2023-03-01T15:35:01;98780;;;13.8;55.2
44075;BME280;60448;44.956;7.660;2023-03-01T15:40:00;98780;;;13.8;55.2
44075;BME280;60448;44.956;7.660;2023-03-01T15:45:08;98780;;;13.8;55.2
44075;BME280;60448;44.956;7.660;2023-03-01T15:50:00;98780;;;13.8;55.2
44075;BME280;60448;44.956;7.660;2023-03-01T15:55:01;98780;;;13.8;55.2
44075;BME280;60448;44.956;7.660;2023-03-01T16:00:00;98780;;;13.8;55.2
44075;BME280;60448;44.956;7.660;2023-03-01T16:05:00;98780;;;13.8;55.2
44075;BME280;60448;44.956;7.660;2023-03-01T16:10:00;98780;;;13.8;55.2
44075;BME280;60448;44.956;7.660;2023-03-01T16:15:00;98780;;;13.8;55.2
44075;BME280;60448;44.956;7.660;2023-03-01T16:20:00;98780;;;13.8;55.2
44075;BME280;60448;44.956;7.660;2023-03-01T16:25:00;98780;;;13.8;55.2
44075;BME280;60448;44.956;7.660;2023-03-01T16:30:00;98780;;;13.8;55.2
44075;BME280;60448;44.956;7.660;2023-03-01T16:35:00;98780;;;13.8;55.2
44075;BME280;60448;44.956;7.660;2023-03-01T16:40:00;98780;;;13.8;55.2
44075;BME280;60448;44.956;7.660;2023-03-01T16:45:00;98780;;;13.8;55.2
44075;BME280;60448;44.956;7.660;2023-03-01T16:50:00;98780;;;13.8;55.2
44075;BME280;60448;44.956;7.660;2023-03-01T16:55:01;98780;;;13.8;55.2
44075;BME280;60448;44.956;7.660;2023-03-01T17:00:00;98780;;;13.8;55.2
44075;BME280;60448;44.956;7.660;2023-03-01T17:05:00;98780;;;13.8;55.2
44075;BME280;60448;44.956;7.660;2023-03-01T17:10:00;98780;;;13.8;55.2
44075;BME280;60448;44.956;7.660;2023-03-01T17:15:00;98780;;;13.8;55.2
44075;BME280;60448;44.956;7.660;2023-03-01T17:20:00;98780;;;13.8;55.2
44075;BME280;60448;44.956;7.660;2023-03-01T17:25:00;98780;;;13.8;55.2
44075;BME280;60448;44.956;7.660;2023-03-01T17:30:00;98780;;;13.8;55.2
44075;BME280;60448;44.956;7.660;2023-03-01T17:35:00;98780;;;13.8;55.2
44075;BME280;60448;44.956;7.660;2023-03-01T17:40:00;98780;;;13.8;55.2
44075;BME280;60448;44.956;7.660;2023-03-01T17:45:00;98780;;;13.8;55.2
44075;BME280;60448;44.956;7.660;2023-03-01T17:50:00;98780;;;13.8;55.2
44075;BME280;60448;44.956;7.660;2023-03-01T17:55:00;98780;;;13.8;55.2
44075;BME280;60448;44.956;7.660;2023-03-01T18:00:00;98780;;;13.8;55.2
44075;BME280;60448;44.956;7.660;2023-03-01T18:05:00;98780;;;13.8;55.2
44075;BME280;60448;44.956;7.660;2023-03-01T18:10:00;98780;;;13.8;55.2
44075;BME280;60448;44.956;7.660;2023-03-01T18:15:00;98780;;;13.8;55.2
44075;BME280;60448;44.956;7.660;2023-03-01T18:20:00;98780;;;13.8;55.2
44075;BME280;60448;44.956;7.660;2023-03-01T18:25:00;98780;;;13.8;55.2
44075;BME280;60448;44.956;7.660;2023-03-01T18:30:00;98780;;;13.8;55.2
44075;BME280;60448;44.956;7.660;2023-03-01T18:35:00;98780;;;13.8;55.2
44075;BME280;60448;44.956;7.660;2023-03-01T18:40:00;98780;;;13.8;55.2
44075;BME280;60448;44.956;7.660;2023-03-01T18:45:00;98780;;;13.8;55.2
44075;BME280;60448;44.956;7.660;2023-03-01T18:50:00;98780;;;13.8;55.2
44075;BME280;60448;44.956;7.660;2023-03-01T18:55:00;98780;;;13.8;55.2
44075;BME280;60448;44.956;7.660;2023-03-01T19:00:00;98780;;;13.8;55.2
44075;BME280;60448;44.956;7.660;2023-03-01T19:05:00;98780;;;13.8;55.2
44075;BME280;60448;44.956;7.660;2023-03-01T19:10:00;98780;;;13.8;55.2
44075;BME280;60448;44.956;7.660;2023-03-01T19:15:00;98780;;;13.8;55.2
44075;BME280;60448;44.956;7.660;2023-03-01T19:20:00;98780;;;13.8;55.2
44075;BME280;60448;44.956;7.660;2023-03-01T19:25:00;98780;;;13.8;55.2
44075;BME280;60448;44.956;7.660;2023-03-01T19:30:00;98780;;;13.8;55.2
44075;BME280;60448;44.956;7.660;2023-03-01T19:35:00;98780;;;13.8;55.2
44075;BME280;60448;44.956;7.660;2023-03-01T19:40:00;98780;;;13.8;55.2
44075;BME280;60448;44.956;7.660;2023-03-01T19:45:00;98780;;;13.8;55.2
44075;BME280;60448;44.956;7.660;2023-03-01T19:50:00;98780;;;13.8;55.2
44075;BME280;60448;44.956;7.660;2023-03-01T19:55:00;98780;;;13.8;55.2
44075;BME280;60448;44.956;7.660;2023-03-01T20:00:00;98780;;;13.8;55.2
44075;BME280;60448;44.956;7.660;2023-03-01T20:05:00;98780;;;13.8;55.2
44075;BME280;60448;44.956;7.660;2023-03-01T20:10:00;98780;;;13.8;55.2
44075;BME280;60448;44.956;7.660;2023-03-01T20:15:00;98780;;;13.8;55.2
44075;BME280;60448;44.956;7.660;2023-03-01T20:20:00;98780;;;13.8;55.2
44075;BME280;60448;44.956;7.660;2023-03-01T20:25:00;98780;;;13.8;55.2
44075;BME280;60448;44.956;7.660;2023-03-01T20:30:00;98780;;;13.8;55.2
44075;BME280;60448;44.956;7.660;2023-03-01T20:35:00;98780;;;13.8;55.2
44075;BME280;60448;44.956;7.660;2023-03-01T20:40:00;98780;;;13.8;55.2
44075;BME280;60448;44.956;7.660;2023-03-01T20:45:00;98780;;;13.8;55.2
44075;BME280;60448;44.956;7.660;2023-03-01T20:50:00;98780;;;13.8;55.2
44075;BME280;60448;44.956;7.660;2023-03-01T20:55:00;98780;;;13.8;55.2
44075;BME280;60448;44.956;7.660;2023-03-01T21:00:00;98780;;;13.8;55.2
44075;BME280;60448;44.956;7.660;2023-03-01T21:05:00;98780;;;13.8;55.2
44075;BME280;60448;44.956;7.660;2023-03-01T21:10:00;98780;;;13.8;55.2
44075;BME280;60448;44.956;7.660;2023-03-01T21:15:00;98780;;;13.8;55.2
44075;BME280;60448;44.956;7.660;2023-03-01T21:20:00;98780;;;13.8;55.2
44075;BME280;60448;44.956;7.660;2023-03-01T21:25:00;98780;;;13.8;55.2
44075;BME280;60448;44.956;7.660;2023-03-01T21:30:00;98780;;;13.8;55.2
44075;BME280;60448;44.956;7.660;2023-03-01T21:35:00;98780;;;13.8;55.2
44075;BME280;60448;44.956;7.660;2023-03-01T21:40:00;98780;;;13.8;55.2
44075;BME280;60448;44.956;7.660;2023-03-01T21:45:00;98780;;;13.8;55.2
44075;BME280;60448;44.956;7.660;2023-03-01T21:50:00;98780;;;13.8;55.2
44075;BME280;60448;44.956;7.660;2023-03-01T21:55:00;98780;;;13.8;55.2
44075;BME280;60448;44.956;7.660;2023-03-01T22:00:00;98780;;;13.8;55.2
44075;BME280;60448;44.956;7.660;2023-03-01T22:05:00;98780;;;13.8;55.2
44075;BME280;60448;44.956;7.660;2023-03-01T22:10:00;98780;;;13.8;55.2
44075;BME280;60448;44.956;7.660;2023-03-01T22:15:00;98780;;;13.8;55.2
44075;BME280;60448;44.956;7.660;2023-03-01T22:20:00;98780;;;13.8;55.2
44075;BME280;60448;44.956;7.660;2023-03-01T22:25:00;98780;;;13.8;55.2
44075;BME280;60448;44.956;7.660;2023-03-01T22:30:00;98780;;;13.8;55.2
44075;BME280;60448;44.956;7.660;2023-03-01T22:35:00;98780;;;13.8;55.2
44075;BME280;60448;44.956;7.660;2023-03-01T22:40:00;98780;;;13.8;55.2
44075;BME280;60448;44.956;7.660;2023-03-01T22:45:00;98780;;;13.8;55.2
44075;BME280;60448;44.956;7.660;2023-03-01T22:50:00;98780;;;13.8;55.2
44075;BME280;60448;44.956;7.660;2023-03-01T22:55:00;98780;;;13.8;55.2
44075;BME280;60448;44.956;7.660;2023-03-01T23:00:00;98780;;;13.8;55.2
44075;BME280;60448;44.956;7.660;2023-03-01T23:05:00;98780;;;13.8;55.2
44075;BME280;60448;44.956;7.660;2023-03-01T23:10:00;98780;;;13.8;55.2
44075;BME280;60448;44.956;7.660;2023-03-01T23:15:00;98780;;;13.8;55.2
44075;BME280;60448;44.956;7.660;2023-03-01T23:20:00;98780;;;13.8;55.2
44075;BME280;60448;44.956;7.660;2023-03-01T23:25:00;98780;;;13.8;55.2
44075;BME280;60448;44.956;7.660;2023-03-01T23:30:00;98780;;;13.8;55.2
44075;BME280;60448;44.956;7.660;2023-03-01T23:35:00;98780;;;13.8;55.2
44075;BME280;60448;44.956;7.660;2023-03-01T23:40:00;98780;;;13.8;55.2
44075;BME280;60448;44.956;7.660;2023-03-01T23:45:00;98780;;;13.8;55.2
44075;BME280;60448;44.956;7.660;2023-03-01T23:50:00;98780;;;13.8;55.2
44075;BME280;60448;44.956;7.660;2023-03-01T23:55:00;98780;;;13.8;55.2
